sensor_id;sensor_type;location;lat;lon;timestamp;P1;durP1;ratioP1;P2;durP2;ratioP2
52106;SDS011;38105;52.968;5.974;2022-08-25T00:01:53;23.35;;;20.95;;
52106;SDS011;38105;52.968;5.974;2022-08-25T00:04:20;25.65;;;23.27;;
52106;SDS011;38105;52.968;5.974;2022-08-25T00:06:47;26.02;;;23.42;;
52106;SDS011;38105;52.968;5.974;2022-08-25T00:09:16;23.60;;;21.38;;
52106;SDS011;38105;52.968;5.974;2022-08-25T00:11:44;27.27;;;23.00;;
52106;SDS011;38105;52.968;5.974;2022-08-25T00:14:12;27.00;;;24.08;;
52106;SDS011;38105;52.968;5.974;2022-08-25T00:16:39;26.20;;;23.70;;
52106;SDS011;38105;52.968;5.974;2022-08-25T00:19:07;27.90;;;25.23;;
52106;SDS011;38105;52.968;5.974;2022-08-25T00:21:38;27.10;;;24.30;;
52106;SDS011;38105;52.968;5.974;2022-08-25T00:24:05;28.27;;;25.27;;
52106;SDS011;38105;52.968;5.974;2022-08-25T00:26:32;26.70;;;23.98;;
52106;SDS011;38105;52.968;5.974;2022-08-25T00:29:01;26.02;;;23.52;;
52106;SDS011;38105;52.968;5.974;2022-08-25T00:31:27;26.75;;;24.25;;
52106;SDS011;38105;52.968;5.974;2022-08-25T00:33:53;27.80;;;24.75;;
52106;SDS011;38105;52.968;5.974;2022-08-25T00:36:19;28.30;;;25.10;;
52106;SDS011;38105;52.968;5.974;2022-08-25T00:38:45;26.65;;;24.05;;
52106;SDS011;38105;52.968;5.974;2022-08-25T00:41:14;25.88;;;23.17;;
52106;SDS011;38105;52.968;5.974;2022-08-25T00:46:11;28.65;;;25.67;;
52106;SDS011;38105;52.968;5.974;2022-08-25T00:48:39;29.98;;;25.17;;
52106;SDS011;38105;52.968;5.974;2022-08-25T00:51:07;26.38;;;23.88;;
52106;SDS011;38105;52.968;5.974;2022-08-25T00:53:35;25.20;;;22.70;;
52106;SDS011;38105;52.968;5.974;2022-08-25T00:56:03;25.98;;;23.40;;
52106;SDS011;38105;52.968;5.974;2022-08-25T00:58:29;26.25;;;23.83;;
52106;SDS011;38105;52.968;5.974;2022-08-25T01:00:56;26.73;;;23.80;;
52106;SDS011;38105;52.968;5.974;2022-08-25T01:03:23;25.67;;;23.17;;
52106;SDS011;38105;52.968;5.974;2022-08-25T01:05:51;25.00;;;22.58;;
52106;SDS011;38105;52.968;5.974;2022-08-25T01:08:18;24.27;;;21.83;;
52106;SDS011;38105;52.968;5.974;2022-08-25T01:10:51;23.60;;;20.95;;
52106;SDS011;38105;52.968;5.974;2022-08-25T01:15:56;23.92;;;21.30;;
52106;SDS011;38105;52.968;5.974;2022-08-25T01:18:22;21.05;;;18.67;;
52106;SDS011;38105;52.968;5.974;2022-08-25T01:20:49;21.70;;;19.40;;
52106;SDS011;38105;52.968;5.974;2022-08-25T01:23:19;19.63;;;17.80;;
52106;SDS011;38105;52.968;5.974;2022-08-25T01:28:35;20.90;;;18.65;;
52106;SDS011;38105;52.968;5.974;2022-08-25T01:31:02;20.27;;;17.35;;
52106;SDS011;38105;52.968;5.974;2022-08-25T01:33:29;22.02;;;17.20;;
52106;SDS011;38105;52.968;5.974;2022-08-25T01:35:55;18.88;;;16.50;;
52106;SDS011;38105;52.968;5.974;2022-08-25T01:38:21;17.20;;;15.23;;
52106;SDS011;38105;52.968;5.974;2022-08-25T01:40:46;20.20;;;13.98;;
52106;SDS011;38105;52.968;5.974;2022-08-25T01:43:21;15.45;;;13.80;;
52106;SDS011;38105;52.968;5.974;2022-08-25T01:45:55;14.63;;;13.10;;
52106;SDS011;38105;52.968;5.974;2022-08-25T01:48:22;14.55;;;12.50;;
52106;SDS011;38105;52.968;5.974;2022-08-25T01:50:47;14.43;;;11.85;;
52106;SDS011;38105;52.968;5.974;2022-08-25T01:53:17;14.52;;;12.93;;
52106;SDS011;38105;52.968;5.974;2022-08-25T01:55:48;14.65;;;12.23;;
52106;SDS011;38105;52.968;5.974;2022-08-25T01:58:27;11.50;;;10.00;;
52106;SDS011;38105;52.968;5.974;2022-08-25T02:00:55;15.48;;;11.27;;
52106;SDS011;38105;52.968;5.974;2022-08-25T02:03:22;11.75;;;9.55;;
52106;SDS011;38105;52.968;5.974;2022-08-25T02:05:49;12.18;;;10.63;;
52106;SDS011;38105;52.968;5.974;2022-08-25T02:08:16;11.95;;;9.32;;
52106;SDS011;38105;52.968;5.974;2022-08-25T02:10:41;11.30;;;9.90;;
52106;SDS011;38105;52.968;5.974;2022-08-25T02:13:07;10.98;;;8.05;;
52106;SDS011;38105;52.968;5.974;2022-08-25T02:15:37;11.57;;;8.35;;
52106;SDS011;38105;52.968;5.974;2022-08-25T02:18:05;11.15;;;7.10;;
52106;SDS011;38105;52.968;5.974;2022-08-25T02:20:31;8.93;;;6.78;;
52106;SDS011;38105;52.968;5.974;2022-08-25T02:22:56;10.98;;;7.18;;
52106;SDS011;38105;52.968;5.974;2022-08-25T02:25:22;9.65;;;7.72;;
52106;SDS011;38105;52.968;5.974;2022-08-25T02:27:48;10.07;;;7.25;;
52106;SDS011;38105;52.968;5.974;2022-08-25T02:30:14;13.32;;;7.00;;
52106;SDS011;38105;52.968;5.974;2022-08-25T02:32:41;7.95;;;6.55;;
52106;SDS011;38105;52.968;5.974;2022-08-25T02:35:06;8.23;;;5.47;;
52106;SDS011;38105;52.968;5.974;2022-08-25T02:37:32;9.65;;;6.43;;
52106;SDS011;38105;52.968;5.974;2022-08-25T02:39:59;10.15;;;6.40;;
52106;SDS011;38105;52.968;5.974;2022-08-25T02:42:25;8.75;;;5.95;;
52106;SDS011;38105;52.968;5.974;2022-08-25T02:44:51;9.10;;;6.28;;
52106;SDS011;38105;52.968;5.974;2022-08-25T02:47:17;9.05;;;5.90;;
52106;SDS011;38105;52.968;5.974;2022-08-25T02:49:43;7.40;;;6.15;;
52106;SDS011;38105;52.968;5.974;2022-08-25T02:52:09;9.52;;;5.47;;
52106;SDS011;38105;52.968;5.974;2022-08-25T02:54:34;6.90;;;5.20;;
52106;SDS011;38105;52.968;5.974;2022-08-25T02:57:00;11.63;;;5.68;;
52106;SDS011;38105;52.968;5.974;2022-08-25T02:59:26;11.57;;;5.18;;
52106;SDS011;38105;52.968;5.974;2022-08-25T03:01:52;8.73;;;5.03;;
52106;SDS011;38105;52.968;5.974;2022-08-25T03:04:17;7.75;;;4.85;;
52106;SDS011;38105;52.968;5.974;2022-08-25T03:06:44;9.73;;;4.70;;
52106;SDS011;38105;52.968;5.974;2022-08-25T03:09:10;7.63;;;4.70;;
52106;SDS011;38105;52.968;5.974;2022-08-25T03:11:36;5.90;;;4.57;;
52106;SDS011;38105;52.968;5.974;2022-08-25T03:14:03;6.75;;;3.90;;
52106;SDS011;38105;52.968;5.974;2022-08-25T03:16:29;6.65;;;4.43;;
52106;SDS011;38105;52.968;5.974;2022-08-25T03:18:56;8.10;;;4.50;;
52106;SDS011;38105;52.968;5.974;2022-08-25T03:21:22;7.10;;;3.88;;
52106;SDS011;38105;52.968;5.974;2022-08-25T03:23:48;8.18;;;3.97;;
52106;SDS011;38105;52.968;5.974;2022-08-25T03:26:14;9.70;;;3.95;;
52106;SDS011;38105;52.968;5.974;2022-08-25T03:28:59;10.30;;;3.85;;
52106;SDS011;38105;52.968;5.974;2022-08-25T03:31:29;6.80;;;4.18;;
52106;SDS011;38105;52.968;5.974;2022-08-25T03:33:56;7.97;;;4.20;;
52106;SDS011;38105;52.968;5.974;2022-08-25T03:36:22;9.05;;;4.03;;
52106;SDS011;38105;52.968;5.974;2022-08-25T03:38:48;7.28;;;3.83;;
52106;SDS011;38105;52.968;5.974;2022-08-25T03:41:16;7.72;;;3.80;;
52106;SDS011;38105;52.968;5.974;2022-08-25T03:43:45;6.40;;;3.58;;
52106;SDS011;38105;52.968;5.974;2022-08-25T03:46:22;7.32;;;3.78;;
52106;SDS011;38105;52.968;5.974;2022-08-25T03:48:51;6.95;;;3.33;;
52106;SDS011;38105;52.968;5.974;2022-08-25T03:53:51;7.72;;;3.33;;
52106;SDS011;38105;52.968;5.974;2022-08-25T03:56:17;9.48;;;3.42;;
52106;SDS011;38105;52.968;5.974;2022-08-25T03:58:43;13.07;;;3.22;;
52106;SDS011;38105;52.968;5.974;2022-08-25T04:01:09;10.23;;;3.63;;
52106;SDS011;38105;52.968;5.974;2022-08-25T04:03:35;5.32;;;3.63;;
52106;SDS011;38105;52.968;5.974;2022-08-25T04:06:01;6.43;;;3.53;;
52106;SDS011;38105;52.968;5.974;2022-08-25T04:08:29;8.45;;;3.30;;
52106;SDS011;38105;52.968;5.974;2022-08-25T04:10:54;7.32;;;3.60;;
52106;SDS011;38105;52.968;5.974;2022-08-25T04:13:20;5.60;;;3.25;;
52106;SDS011;38105;52.968;5.974;2022-08-25T04:15:46;8.73;;;3.15;;
52106;SDS011;38105;52.968;5.974;2022-08-25T04:18:12;9.15;;;3.35;;
52106;SDS011;38105;52.968;5.974;2022-08-25T04:20:41;7.85;;;3.38;;
52106;SDS011;38105;52.968;5.974;2022-08-25T04:23:08;11.63;;;3.25;;
52106;SDS011;38105;52.968;5.974;2022-08-25T04:25:34;11.93;;;3.15;;
52106;SDS011;38105;52.968;5.974;2022-08-25T04:28:06;7.63;;;3.10;;
52106;SDS011;38105;52.968;5.974;2022-08-25T04:30:33;6.30;;;2.90;;
52106;SDS011;38105;52.968;5.974;2022-08-25T04:32:58;9.70;;;2.78;;
52106;SDS011;38105;52.968;5.974;2022-08-25T04:35:24;7.85;;;3.25;;
52106;SDS011;38105;52.968;5.974;2022-08-25T04:37:50;7.15;;;3.38;;
52106;SDS011;38105;52.968;5.974;2022-08-25T04:40:16;9.75;;;3.28;;
52106;SDS011;38105;52.968;5.974;2022-08-25T04:42:41;6.97;;;2.80;;
52106;SDS011;38105;52.968;5.974;2022-08-25T04:52:31;9.25;;;2.83;;
52106;SDS011;38105;52.968;5.974;2022-08-25T04:54:57;7.18;;;3.00;;
52106;SDS011;38105;52.968;5.974;2022-08-25T04:57:23;7.97;;;3.33;;
52106;SDS011;38105;52.968;5.974;2022-08-25T04:59:48;8.57;;;3.20;;
52106;SDS011;38105;52.968;5.974;2022-08-25T05:02:14;7.32;;;3.05;;
52106;SDS011;38105;52.968;5.974;2022-08-25T05:04:40;4.88;;;3.10;;
52106;SDS011;38105;52.968;5.974;2022-08-25T05:07:05;10.95;;;3.17;;
52106;SDS011;38105;52.968;5.974;2022-08-25T05:09:31;8.82;;;3.10;;
52106;SDS011;38105;52.968;5.974;2022-08-25T05:11:57;9.60;;;3.30;;
52106;SDS011;38105;52.968;5.974;2022-08-25T05:14:24;6.82;;;3.22;;
52106;SDS011;38105;52.968;5.974;2022-08-25T05:16:49;6.43;;;2.85;;
52106;SDS011;38105;52.968;5.974;2022-08-25T05:19:15;4.13;;;2.90;;
52106;SDS011;38105;52.968;5.974;2022-08-25T05:21:41;6.45;;;2.65;;
52106;SDS011;38105;52.968;5.974;2022-08-25T05:24:07;6.28;;;2.92;;
52106;SDS011;38105;52.968;5.974;2022-08-25T05:26:33;7.50;;;3.17;;
52106;SDS011;38105;52.968;5.974;2022-08-25T05:29:00;7.80;;;3.13;;
52106;SDS011;38105;52.968;5.974;2022-08-25T05:31:28;8.73;;;2.45;;
52106;SDS011;38105;52.968;5.974;2022-08-25T05:33:55;7.05;;;2.63;;
52106;SDS011;38105;52.968;5.974;2022-08-25T05:36:21;5.75;;;3.03;;
52106;SDS011;38105;52.968;5.974;2022-08-25T05:38:48;5.82;;;2.83;;
52106;SDS011;38105;52.968;5.974;2022-08-25T05:41:19;4.50;;;2.33;;
52106;SDS011;38105;52.968;5.974;2022-08-25T05:43:48;8.27;;;2.38;;
52106;SDS011;38105;52.968;5.974;2022-08-25T05:46:15;6.07;;;2.58;;
52106;SDS011;38105;52.968;5.974;2022-08-25T05:48:43;5.90;;;2.38;;
52106;SDS011;38105;52.968;5.974;2022-08-25T05:51:09;7.32;;;2.47;;
52106;SDS011;38105;52.968;5.974;2022-08-25T05:53:36;85.72;;;11.82;;
52106;SDS011;38105;52.968;5.974;2022-08-25T05:56:03;54.22;;;7.50;;
52106;SDS011;38105;52.968;5.974;2022-08-25T05:58:29;14.25;;;2.97;;
52106;SDS011;38105;52.968;5.974;2022-08-25T06:00:55;7.07;;;2.50;;
52106;SDS011;38105;52.968;5.974;2022-08-25T06:03:42;25.35;;;3.83;;
52106;SDS011;38105;52.968;5.974;2022-08-25T06:06:08;22.65;;;3.95;;
52106;SDS011;38105;52.968;5.974;2022-08-25T06:08:33;12.38;;;2.72;;
52106;SDS011;38105;52.968;5.974;2022-08-25T06:10:59;6.93;;;2.10;;
52106;SDS011;38105;52.968;5.974;2022-08-25T06:13:25;8.27;;;2.40;;
52106;SDS011;38105;52.968;5.974;2022-08-25T06:15:55;11.02;;;2.53;;
52106;SDS011;38105;52.968;5.974;2022-08-25T06:18:22;11.65;;;2.35;;
52106;SDS011;38105;52.968;5.974;2022-08-25T06:20:47;7.03;;;2.00;;
52106;SDS011;38105;52.968;5.974;2022-08-25T06:23:13;10.55;;;2.35;;
52106;SDS011;38105;52.968;5.974;2022-08-25T06:25:38;7.30;;;2.40;;
52106;SDS011;38105;52.968;5.974;2022-08-25T06:28:04;13.43;;;4.53;;
52106;SDS011;38105;52.968;5.974;2022-08-25T06:30:29;16.20;;;4.28;;
52106;SDS011;38105;52.968;5.974;2022-08-25T06:32:55;6.57;;;3.40;;
52106;SDS011;38105;52.968;5.974;2022-08-25T06:35:21;23.38;;;3.97;;
52106;SDS011;38105;52.968;5.974;2022-08-25T06:37:47;26.98;;;4.65;;
52106;SDS011;38105;52.968;5.974;2022-08-25T06:40:13;44.78;;;5.63;;
52106;SDS011;38105;52.968;5.974;2022-08-25T06:42:41;113.07;;;12.20;;
52106;SDS011;38105;52.968;5.974;2022-08-25T06:45:06;42.60;;;6.32;;
52106;SDS011;38105;52.968;5.974;2022-08-25T06:47:33;8.63;;;2.78;;
52106;SDS011;38105;52.968;5.974;2022-08-25T06:49:59;10.93;;;2.60;;
52106;SDS011;38105;52.968;5.974;2022-08-25T06:52:24;9.70;;;2.40;;
52106;SDS011;38105;52.968;5.974;2022-08-25T06:54:50;7.70;;;2.28;;
52106;SDS011;38105;52.968;5.974;2022-08-25T06:57:17;8.60;;;2.20;;
52106;SDS011;38105;52.968;5.974;2022-08-25T06:59:42;9.75;;;2.42;;
52106;SDS011;38105;52.968;5.974;2022-08-25T07:02:08;4.82;;;1.85;;
52106;SDS011;38105;52.968;5.974;2022-08-25T07:04:34;11.05;;;2.45;;
52106;SDS011;38105;52.968;5.974;2022-08-25T07:07:01;3.97;;;1.92;;
52106;SDS011;38105;52.968;5.974;2022-08-25T07:09:28;9.57;;;2.17;;
52106;SDS011;38105;52.968;5.974;2022-08-25T07:11:53;10.85;;;2.10;;
52106;SDS011;38105;52.968;5.974;2022-08-25T07:14:19;7.05;;;1.92;;
52106;SDS011;38105;52.968;5.974;2022-08-25T07:16:46;6.82;;;1.98;;
52106;SDS011;38105;52.968;5.974;2022-08-25T07:19:12;5.32;;;1.95;;
52106;SDS011;38105;52.968;5.974;2022-08-25T07:21:39;6.10;;;1.70;;
52106;SDS011;38105;52.968;5.974;2022-08-25T07:24:07;4.05;;;1.80;;
52106;SDS011;38105;52.968;5.974;2022-08-25T07:26:35;6.25;;;2.05;;
52106;SDS011;38105;52.968;5.974;2022-08-25T07:29:02;9.18;;;2.13;;
52106;SDS011;38105;52.968;5.974;2022-08-25T07:31:31;8.32;;;2.10;;
52106;SDS011;38105;52.968;5.974;2022-08-25T07:33:56;7.15;;;2.22;;
52106;SDS011;38105;52.968;5.974;2022-08-25T07:36:41;9.20;;;2.08;;
52106;SDS011;38105;52.968;5.974;2022-08-25T07:39:07;5.90;;;2.50;;
52106;SDS011;38105;52.968;5.974;2022-08-25T07:41:36;9.55;;;2.00;;
52106;SDS011;38105;52.968;5.974;2022-08-25T07:44:04;8.80;;;2.45;;
52106;SDS011;38105;52.968;5.974;2022-08-25T07:46:30;6.55;;;1.83;;
52106;SDS011;38105;52.968;5.974;2022-08-25T07:48:56;5.97;;;1.90;;
52106;SDS011;38105;52.968;5.974;2022-08-25T07:51:22;5.35;;;1.92;;
52106;SDS011;38105;52.968;5.974;2022-08-25T07:53:47;6.18;;;2.00;;
52106;SDS011;38105;52.968;5.974;2022-08-25T07:56:14;11.00;;;2.05;;
52106;SDS011;38105;52.968;5.974;2022-08-25T07:58:41;7.03;;;2.25;;
52106;SDS011;38105;52.968;5.974;2022-08-25T08:01:12;9.65;;;2.13;;
52106;SDS011;38105;52.968;5.974;2022-08-25T08:03:42;5.90;;;1.83;;
52106;SDS011;38105;52.968;5.974;2022-08-25T08:06:09;6.93;;;2.13;;
52106;SDS011;38105;52.968;5.974;2022-08-25T08:08:37;9.30;;;1.92;;
52106;SDS011;38105;52.968;5.974;2022-08-25T08:11:03;6.28;;;2.10;;
52106;SDS011;38105;52.968;5.974;2022-08-25T08:13:29;8.70;;;2.03;;
52106;SDS011;38105;52.968;5.974;2022-08-25T08:15:56;7.93;;;1.90;;
52106;SDS011;38105;52.968;5.974;2022-08-25T08:18:22;8.50;;;2.30;;
52106;SDS011;38105;52.968;5.974;2022-08-25T08:20:48;10.05;;;2.10;;
52106;SDS011;38105;52.968;5.974;2022-08-25T08:23:14;5.30;;;1.88;;
52106;SDS011;38105;52.968;5.974;2022-08-25T08:25:40;8.95;;;2.05;;
52106;SDS011;38105;52.968;5.974;2022-08-25T08:28:06;6.38;;;1.95;;
52106;SDS011;38105;52.968;5.974;2022-08-25T08:30:31;9.35;;;2.28;;
52106;SDS011;38105;52.968;5.974;2022-08-25T08:32:57;8.00;;;1.90;;
52106;SDS011;38105;52.968;5.974;2022-08-25T08:35:23;5.88;;;1.88;;
52106;SDS011;38105;52.968;5.974;2022-08-25T08:37:48;8.43;;;1.85;;
52106;SDS011;38105;52.968;5.974;2022-08-25T08:40:14;7.05;;;1.50;;
52106;SDS011;38105;52.968;5.974;2022-08-25T08:42:51;6.88;;;1.70;;
52106;SDS011;38105;52.968;5.974;2022-08-25T08:45:36;6.82;;;1.52;;
52106;SDS011;38105;52.968;5.974;2022-08-25T08:48:18;5.78;;;1.58;;
52106;SDS011;38105;52.968;5.974;2022-08-25T08:51:11;8.88;;;1.95;;
52106;SDS011;38105;52.968;5.974;2022-08-25T08:53:52;7.53;;;1.90;;
52106;SDS011;38105;52.968;5.974;2022-08-25T08:56:31;11.48;;;2.03;;
52106;SDS011;38105;52.968;5.974;2022-08-25T08:59:05;5.05;;;1.70;;
52106;SDS011;38105;52.968;5.974;2022-08-25T09:01:42;5.18;;;1.40;;
52106;SDS011;38105;52.968;5.974;2022-08-25T09:04:19;5.75;;;1.60;;
52106;SDS011;38105;52.968;5.974;2022-08-25T09:06:59;6.25;;;1.60;;
52106;SDS011;38105;52.968;5.974;2022-08-25T09:09:29;4.18;;;1.55;;
52106;SDS011;38105;52.968;5.974;2022-08-25T09:20:47;4.40;;;1.50;;
52106;SDS011;38105;52.968;5.974;2022-08-25T09:29:31;7.13;;;1.30;;
52106;SDS011;38105;52.968;5.974;2022-08-25T09:31:48;10.73;;;1.52;;
52106;SDS011;38105;52.968;5.974;2022-08-25T09:34:20;4.07;;;1.50;;
52106;SDS011;38105;52.968;5.974;2022-08-25T09:36:47;8.20;;;1.30;;
52106;SDS011;38105;52.968;5.974;2022-08-25T09:39:17;7.57;;;1.25;;
52106;SDS011;38105;52.968;5.974;2022-08-25T09:41:51;5.28;;;1.00;;
52106;SDS011;38105;52.968;5.974;2022-08-25T09:46:59;6.38;;;1.20;;
52106;SDS011;38105;52.968;5.974;2022-08-25T09:49:42;4.90;;;1.23;;
52106;SDS011;38105;52.968;5.974;2022-08-25T09:54:48;6.63;;;1.60;;
52106;SDS011;38105;52.968;5.974;2022-08-25T09:59:55;8.02;;;1.20;;
52106;SDS011;38105;52.968;5.974;2022-08-25T10:02:22;4.20;;;1.15;;
52106;SDS011;38105;52.968;5.974;2022-08-25T10:04:50;4.13;;;1.27;;
52106;SDS011;38105;52.968;5.974;2022-08-25T10:07:20;7.10;;;1.38;;
52106;SDS011;38105;52.968;5.974;2022-08-25T10:09:51;4.80;;;1.20;;
52106;SDS011;38105;52.968;5.974;2022-08-25T10:12:34;6.30;;;1.45;;
52106;SDS011;38105;52.968;5.974;2022-08-25T10:15:14;3.25;;;1.20;;
52106;SDS011;38105;52.968;5.974;2022-08-25T10:17:51;3.00;;;1.10;;
52106;SDS011;38105;52.968;5.974;2022-08-25T10:20:24;5.45;;;1.20;;
52106;SDS011;38105;52.968;5.974;2022-08-25T10:22:52;5.57;;;1.15;;
52106;SDS011;38105;52.968;5.974;2022-08-25T10:25:40;6.53;;;1.35;;
52106;SDS011;38105;52.968;5.974;2022-08-25T10:28:13;5.55;;;1.42;;
52106;SDS011;38105;52.968;5.974;2022-08-25T10:33:38;6.78;;;1.40;;
52106;SDS011;38105;52.968;5.974;2022-08-25T10:38:57;5.72;;;1.35;;
52106;SDS011;38105;52.968;5.974;2022-08-25T10:49:19;6.33;;;1.40;;
52106;SDS011;38105;52.968;5.974;2022-08-25T10:52:06;5.82;;;1.42;;
52106;SDS011;38105;52.968;5.974;2022-08-25T10:55:00;5.68;;;1.48;;
52106;SDS011;38105;52.968;5.974;2022-08-25T11:00:37;5.03;;;1.45;;
52106;SDS011;38105;52.968;5.974;2022-08-25T11:05:51;5.35;;;0.90;;
52106;SDS011;38105;52.968;5.974;2022-08-25T11:08:36;3.47;;;1.20;;
52106;SDS011;38105;52.968;5.974;2022-08-25T11:11:29;3.40;;;1.50;;
52106;SDS011;38105;52.968;5.974;2022-08-25T11:14:07;5.00;;;1.42;;
52106;SDS011;38105;52.968;5.974;2022-08-25T11:16:40;5.53;;;1.70;;
52106;SDS011;38105;52.968;5.974;2022-08-25T11:22:03;7.20;;;1.60;;
52106;SDS011;38105;52.968;5.974;2022-08-25T11:27:51;3.35;;;1.40;;
52106;SDS011;38105;52.968;5.974;2022-08-25T11:30:30;4.38;;;1.85;;
52106;SDS011;38105;52.968;5.974;2022-08-25T11:32:55;2.38;;;1.20;;
52106;SDS011;38105;52.968;5.974;2022-08-25T11:35:30;2.80;;;1.23;;
52106;SDS011;38105;52.968;5.974;2022-08-25T11:40:31;3.90;;;1.63;;
52106;SDS011;38105;52.968;5.974;2022-08-25T11:48:59;5.38;;;1.45;;
52106;SDS011;38105;52.968;5.974;2022-08-25T11:51:48;3.15;;;1.50;;
52106;SDS011;38105;52.968;5.974;2022-08-25T11:57:04;5.78;;;1.70;;
52106;SDS011;38105;52.968;5.974;2022-08-25T12:02:35;6.15;;;1.83;;
52106;SDS011;38105;52.968;5.974;2022-08-25T12:15:22;4.57;;;1.52;;
52106;SDS011;38105;52.968;5.974;2022-08-25T12:18:15;5.40;;;1.50;;
52106;SDS011;38105;52.968;5.974;2022-08-25T12:23:29;5.85;;;1.40;;
52106;SDS011;38105;52.968;5.974;2022-08-25T12:25:57;4.72;;;1.42;;
52106;SDS011;38105;52.968;5.974;2022-08-25T12:31:15;10.10;;;1.75;;
52106;SDS011;38105;52.968;5.974;2022-08-25T12:33:53;6.57;;;1.50;;
52106;SDS011;38105;52.968;5.974;2022-08-25T12:36:31;6.15;;;1.50;;
52106;SDS011;38105;52.968;5.974;2022-08-25T12:39:16;3.70;;;1.27;;
52106;SDS011;38105;52.968;5.974;2022-08-25T12:41:51;3.33;;;1.50;;
52106;SDS011;38105;52.968;5.974;2022-08-25T12:44:33;6.18;;;1.58;;
52106;SDS011;38105;52.968;5.974;2022-08-25T12:49:43;4.43;;;1.20;;
52106;SDS011;38105;52.968;5.974;2022-08-25T12:52:17;4.00;;;1.45;;
52106;SDS011;38105;52.968;5.974;2022-08-25T12:59:58;7.40;;;1.55;;
52106;SDS011;38105;52.968;5.974;2022-08-25T13:05:43;4.35;;;1.65;;
52106;SDS011;38105;52.968;5.974;2022-08-25T13:08:21;5.50;;;1.50;;
52106;SDS011;38105;52.968;5.974;2022-08-25T13:11:16;5.85;;;1.45;;
52106;SDS011;38105;52.968;5.974;2022-08-25T13:16:25;5.28;;;1.23;;
52106;SDS011;38105;52.968;5.974;2022-08-25T13:18:53;3.28;;;1.20;;
52106;SDS011;38105;52.968;5.974;2022-08-25T13:21:24;2.30;;;1.17;;
52106;SDS011;38105;52.968;5.974;2022-08-25T13:23:58;4.03;;;1.35;;
52106;SDS011;38105;52.968;5.974;2022-08-25T13:26:27;2.55;;;1.27;;
52106;SDS011;38105;52.968;5.974;2022-08-25T13:29:02;1.92;;;0.95;;
52106;SDS011;38105;52.968;5.974;2022-08-25T13:31:49;5.03;;;1.33;;
52106;SDS011;38105;52.968;5.974;2022-08-25T13:34:19;2.85;;;1.40;;
52106;SDS011;38105;52.968;5.974;2022-08-25T13:36:47;2.83;;;0.95;;
52106;SDS011;38105;52.968;5.974;2022-08-25T13:39:33;5.00;;;1.20;;
52106;SDS011;38105;52.968;5.974;2022-08-25T13:42:01;8.25;;;1.30;;
52106;SDS011;38105;52.968;5.974;2022-08-25T13:44:30;3.17;;;1.05;;
52106;SDS011;38105;52.968;5.974;2022-08-25T13:49:33;5.30;;;1.45;;
52106;SDS011;38105;52.968;5.974;2022-08-25T13:52:00;3.88;;;1.02;;
52106;SDS011;38105;52.968;5.974;2022-08-25T13:54:27;4.93;;;1.38;;
52106;SDS011;38105;52.968;5.974;2022-08-25T13:57:02;3.22;;;1.25;;
52106;SDS011;38105;52.968;5.974;2022-08-25T13:59:35;3.38;;;0.98;;
52106;SDS011;38105;52.968;5.974;2022-08-25T14:02:03;2.97;;;1.13;;
52106;SDS011;38105;52.968;5.974;2022-08-25T14:04:31;9.23;;;1.10;;
52106;SDS011;38105;52.968;5.974;2022-08-25T14:07:25;3.83;;;0.80;;
52106;SDS011;38105;52.968;5.974;2022-08-25T14:09:55;4.05;;;1.10;;
52106;SDS011;38105;52.968;5.974;2022-08-25T14:15:33;3.42;;;1.40;;
52106;SDS011;38105;52.968;5.974;2022-08-25T14:18:00;1.95;;;1.20;;
52106;SDS011;38105;52.968;5.974;2022-08-25T14:20:48;5.70;;;1.30;;
52106;SDS011;38105;52.968;5.974;2022-08-25T14:23:20;3.35;;;1.27;;
52106;SDS011;38105;52.968;5.974;2022-08-25T14:25:49;6.32;;;1.40;;
52106;SDS011;38105;52.968;5.974;2022-08-25T14:28:17;4.85;;;1.00;;
52106;SDS011;38105;52.968;5.974;2022-08-25T14:30:47;2.72;;;1.10;;
52106;SDS011;38105;52.968;5.974;2022-08-25T14:33:29;3.30;;;1.20;;
52106;SDS011;38105;52.968;5.974;2022-08-25T14:36:00;6.40;;;1.25;;
52106;SDS011;38105;52.968;5.974;2022-08-25T14:38:28;2.65;;;1.13;;
52106;SDS011;38105;52.968;5.974;2022-08-25T14:40:54;2.70;;;1.10;;
52106;SDS011;38105;52.968;5.974;2022-08-25T14:43:20;2.65;;;1.00;;
52106;SDS011;38105;52.968;5.974;2022-08-25T14:45:46;2.45;;;1.00;;
52106;SDS011;38105;52.968;5.974;2022-08-25T14:48:14;2.05;;;1.10;;
52106;SDS011;38105;52.968;5.974;2022-08-25T14:50:48;3.13;;;1.10;;
52106;SDS011;38105;52.968;5.974;2022-08-25T14:53:14;4.22;;;0.95;;
52106;SDS011;38105;52.968;5.974;2022-08-25T14:55:40;1.40;;;0.77;;
52106;SDS011;38105;52.968;5.974;2022-08-25T14:58:06;2.70;;;0.98;;
52106;SDS011;38105;52.968;5.974;2022-08-25T15:00:33;3.90;;;1.02;;
52106;SDS011;38105;52.968;5.974;2022-08-25T15:03:04;2.30;;;0.90;;
52106;SDS011;38105;52.968;5.974;2022-08-25T15:05:30;3.42;;;0.80;;
52106;SDS011;38105;52.968;5.974;2022-08-25T15:07:55;2.95;;;0.80;;
52106;SDS011;38105;52.968;5.974;2022-08-25T15:10:40;6.10;;;1.50;;
52106;SDS011;38105;52.968;5.974;2022-08-25T15:13:06;6.88;;;1.20;;
52106;SDS011;38105;52.968;5.974;2022-08-25T15:15:33;2.80;;;0.80;;
52106;SDS011;38105;52.968;5.974;2022-08-25T15:18:03;3.22;;;0.90;;
52106;SDS011;38105;52.968;5.974;2022-08-25T15:20:29;2.85;;;0.90;;
52106;SDS011;38105;52.968;5.974;2022-08-25T15:22:55;3.28;;;1.00;;
52106;SDS011;38105;52.968;5.974;2022-08-25T15:25:21;3.08;;;0.70;;
52106;SDS011;38105;52.968;5.974;2022-08-25T15:27:47;1.88;;;0.80;;
52106;SDS011;38105;52.968;5.974;2022-08-25T15:30:13;5.28;;;1.00;;
52106;SDS011;38105;52.968;5.974;2022-08-25T15:32:39;3.65;;;1.20;;
52106;SDS011;38105;52.968;5.974;2022-08-25T15:35:05;4.68;;;0.77;;
52106;SDS011;38105;52.968;5.974;2022-08-25T15:37:31;3.47;;;0.80;;
52106;SDS011;38105;52.968;5.974;2022-08-25T15:39:56;2.30;;;0.70;;
52106;SDS011;38105;52.968;5.974;2022-08-25T15:42:22;1.77;;;0.70;;
52106;SDS011;38105;52.968;5.974;2022-08-25T15:44:50;3.42;;;1.13;;
52106;SDS011;38105;52.968;5.974;2022-08-25T15:47:15;3.10;;;1.08;;
52106;SDS011;38105;52.968;5.974;2022-08-25T15:49:41;2.35;;;0.90;;
52106;SDS011;38105;52.968;5.974;2022-08-25T15:52:07;2.60;;;0.77;;
52106;SDS011;38105;52.968;5.974;2022-08-25T15:54:33;2.92;;;0.95;;
52106;SDS011;38105;52.968;5.974;2022-08-25T15:56:59;3.35;;;0.85;;
52106;SDS011;38105;52.968;5.974;2022-08-25T15:59:25;3.72;;;0.90;;
52106;SDS011;38105;52.968;5.974;2022-08-25T16:01:52;4.38;;;1.30;;
52106;SDS011;38105;52.968;5.974;2022-08-25T16:04:18;3.10;;;0.88;;
52106;SDS011;38105;52.968;5.974;2022-08-25T16:06:47;3.00;;;1.17;;
52106;SDS011;38105;52.968;5.974;2022-08-25T16:09:13;1.20;;;0.80;;
52106;SDS011;38105;52.968;5.974;2022-08-25T16:11:38;2.20;;;1.00;;
52106;SDS011;38105;52.968;5.974;2022-08-25T16:14:07;3.22;;;1.00;;
52106;SDS011;38105;52.968;5.974;2022-08-25T16:16:33;4.35;;;1.25;;
52106;SDS011;38105;52.968;5.974;2022-08-25T16:18:58;3.08;;;0.80;;
52106;SDS011;38105;52.968;5.974;2022-08-25T16:21:26;3.50;;;1.10;;
52106;SDS011;38105;52.968;5.974;2022-08-25T16:23:54;2.95;;;1.10;;
52106;SDS011;38105;52.968;5.974;2022-08-25T16:26:24;3.38;;;1.27;;
52106;SDS011;38105;52.968;5.974;2022-08-25T16:28:50;4.18;;;1.13;;
52106;SDS011;38105;52.968;5.974;2022-08-25T16:31:17;2.00;;;0.90;;
52106;SDS011;38105;52.968;5.974;2022-08-25T16:33:43;4.15;;;0.95;;
52106;SDS011;38105;52.968;5.974;2022-08-25T16:36:10;3.95;;;1.30;;
52106;SDS011;38105;52.968;5.974;2022-08-25T16:38:39;3.22;;;0.90;;
52106;SDS011;38105;52.968;5.974;2022-08-25T16:41:10;2.83;;;1.00;;
52106;SDS011;38105;52.968;5.974;2022-08-25T16:43:37;3.67;;;1.05;;
52106;SDS011;38105;52.968;5.974;2022-08-25T16:46:07;1.80;;;0.85;;
52106;SDS011;38105;52.968;5.974;2022-08-25T16:48:34;4.75;;;1.08;;
52106;SDS011;38105;52.968;5.974;2022-08-25T16:51:05;4.68;;;1.15;;